createdAt,value
2023-05-25T00:01:02.652Z,5.49
2023-05-25T00:03:33.235Z,5.52
2023-05-25T00:06:04.249Z,5.57
2023-05-25T00:08:36.603Z,5.37
2023-05-25T00:11:06.436Z,5.63
2023-05-25T00:13:36.223Z,5.38
2023-05-25T00:16:06.074Z,5.64
2023-05-25T00:18:38.177Z,5.47
2023-05-25T00:21:08.462Z,5.54
2023-05-25T00:23:40.794Z,5.59
2023-05-25T00:26:10.705Z,5.41
2023-05-25T00:28:40.693Z,5.55
2023-05-25T00:31:10.567Z,5.88
2023-05-25T00:33:40.356Z,5.69
2023-05-25T00:36:10.390Z,5.49
2023-05-25T00:38:42.669Z,5.34
2023-05-25T00:41:12.457Z,5.39
2023-05-25T00:43:42.271Z,5.53
2023-05-25T00:46:14.649Z,5.52
2023-05-25T00:48:45.651Z,5.81
2023-05-25T00:51:17.311Z,5.89
2023-05-25T00:53:49.693Z,5.95
2023-05-25T00:56:23.391Z,5.90
2023-05-25T00:58:57.155Z,5.76
2023-05-25T01:01:33.668Z,5.68
2023-05-25T01:04:07.692Z,5.70
2023-05-25T01:06:39.646Z,6.00
2023-05-25T01:09:14.761Z,5.43
2023-05-25T01:11:47.312Z,5.43
2023-05-25T01:14:21.371Z,5.76
2023-05-25T01:16:51.953Z,5.96
2023-05-25T01:19:22.100Z,5.69
2023-05-25T01:21:59.822Z,5.76
2023-05-25T01:24:33.947Z,6.04
2023-05-25T01:27:07.146Z,5.63
2023-05-25T01:29:38.188Z,5.73
2023-05-25T01:32:09.367Z,5.93
2023-05-25T01:34:39.214Z,5.66
2023-05-25T01:37:13.626Z,5.58
2023-05-25T01:39:43.491Z,5.92
2023-05-25T01:42:13.471Z,5.77
2023-05-25T01:44:43.884Z,5.99
2023-05-25T01:47:19.671Z,5.81
2023-05-25T01:49:55.026Z,6.08
2023-05-25T01:52:31.648Z,6.40
2023-05-25T01:55:06.376Z,6.13
2023-05-25T01:57:39.350Z,5.87
2023-05-25T02:00:11.728Z,6.26
2023-05-25T02:02:46.016Z,6.28
2023-05-25T02:05:16.547Z,6.15
2023-05-25T02:07:49.874Z,6.04
2023-05-25T02:10:20.244Z,6.12
2023-05-25T02:12:49.956Z,5.96
2023-05-25T02:15:21.465Z,5.78
2023-05-25T02:17:51.684Z,6.24
2023-05-25T02:20:21.865Z,6.06
2023-05-25T02:22:54.252Z,6.20
2023-05-25T02:25:23.993Z,5.98
2023-05-25T02:27:53.864Z,6.41
2023-05-25T02:30:24.225Z,6.29
2023-05-25T02:32:57.794Z,6.56
2023-05-25T02:35:27.864Z,6.15
2023-05-25T02:38:00.306Z,6.57
2023-05-25T02:40:30.156Z,6.50
2023-05-25T02:42:59.907Z,6.47
2023-05-25T02:45:29.614Z,6.47
2023-05-25T02:47:59.506Z,6.47
2023-05-25T02:50:30.197Z,6.24
2023-05-25T02:53:05.762Z,6.55
2023-05-25T02:55:35.597Z,6.56
2023-05-25T02:58:05.718Z,6.18
2023-05-25T03:00:51.090Z,6.32
2023-05-25T03:03:21.475Z,6.42
2023-05-25T03:05:51.832Z,6.32
2023-05-25T03:08:24.196Z,6.59
2023-05-25T03:11:00.032Z,6.26
2023-05-25T03:13:32.775Z,6.46
2023-05-25T03:16:02.622Z,6.64
2023-05-25T03:18:32.382Z,6.53
2023-05-25T03:21:02.136Z,6.66
2023-05-25T03:23:34.679Z,6.70
2023-05-25T03:26:07.694Z,6.38
2023-05-25T03:28:37.493Z,6.65
2023-05-25T03:31:08.388Z,6.77
2023-05-25T03:33:38.301Z,6.95
2023-05-25T03:36:10.354Z,6.77
2023-05-25T03:38:42.876Z,6.92
2023-05-25T03:41:12.801Z,6.78
2023-05-25T03:43:42.681Z,6.86
2023-05-25T03:46:13.444Z,6.59
2023-05-25T03:48:45.365Z,7.57
2023-05-25T03:51:15.131Z,7.32
2023-05-25T03:53:47.483Z,7.26
2023-05-25T03:56:17.217Z,7.23
2023-05-25T03:58:47.151Z,7.47
2023-05-25T04:01:16.910Z,7.38
2023-05-25T04:03:47.524Z,7.04
2023-05-25T04:06:19.614Z,7.47
2023-05-25T04:08:53.475Z,7.45
2023-05-25T04:11:24.880Z,7.54
2023-05-25T04:13:54.645Z,7.37
2023-05-25T04:16:26.665Z,7.38
2023-05-25T04:18:57.349Z,7.66
2023-05-25T04:21:27.647Z,7.41
2023-05-25T04:23:59.952Z,7.15
2023-05-25T04:26:29.871Z,7.25
2023-05-25T04:29:02.042Z,7.61
2023-05-25T04:31:47.938Z,7.39
2023-05-25T04:34:30.517Z,7.28
2023-05-25T04:37:09.205Z,7.47
2023-05-25T04:39:43.862Z,7.31
2023-05-25T04:42:16.626Z,7.35
2023-05-25T04:44:47.111Z,8.04
2023-05-25T04:47:19.432Z,7.54
2023-05-25T04:49:49.202Z,7.63
2023-05-25T04:52:19.129Z,7.71
2023-05-25T04:54:51.814Z,7.36
2023-05-25T04:57:21.710Z,7.78
2023-05-25T04:59:52.244Z,8.08
2023-05-25T05:02:22.113Z,7.56
2023-05-25T05:04:54.100Z,8.03
2023-05-25T05:07:24.455Z,8.15
2023-05-25T05:09:56.845Z,8.20
2023-05-25T05:12:26.870Z,7.74
2023-05-25T05:14:59.321Z,7.35
2023-05-25T05:17:31.035Z,7.85
2023-05-25T05:20:01.209Z,7.50
2023-05-25T05:22:31.134Z,7.58
2023-05-25T05:25:03.509Z,7.57
2023-05-25T05:27:33.334Z,7.51
2023-05-25T05:30:08.473Z,7.42
2023-05-25T05:32:38.206Z,7.17
2023-05-25T05:35:08.442Z,7.37
2023-05-25T05:37:44.598Z,7.16
2023-05-25T05:40:17.107Z,7.19
2023-05-25T05:42:46.930Z,6.77
2023-05-25T05:45:16.796Z,7.07
2023-05-25T05:47:49.688Z,6.89
2023-05-25T05:50:20.017Z,6.60
2023-05-25T05:52:49.748Z,6.89
2023-05-25T05:55:22.250Z,7.04
2023-05-25T05:57:54.534Z,6.69
2023-05-25T06:00:25.403Z,6.79
2023-05-25T06:02:55.366Z,7.13
2023-05-25T06:05:29.285Z,6.95
2023-05-25T06:08:00.056Z,7.16
2023-05-25T06:10:32.506Z,7.04
2023-05-25T06:13:02.352Z,6.89
2023-05-25T06:15:32.150Z,6.68
2023-05-25T06:18:03.844Z,7.41
2023-05-25T06:20:35.500Z,7.17
2023-05-25T06:23:05.321Z,6.91
2023-05-25T06:25:38.498Z,6.80
2023-05-25T06:28:08.877Z,6.80
2023-05-25T06:30:38.590Z,6.80
2023-05-25T06:33:10.491Z,6.74
2023-05-25T06:35:40.514Z,7.02
2023-05-25T06:38:11.695Z,7.50
2023-05-25T06:40:44.474Z,7.09
2023-05-25T06:43:14.348Z,7.24
2023-05-25T06:45:52.445Z,7.20
2023-05-25T06:48:22.893Z,7.09
2023-05-25T06:50:52.598Z,6.49
2023-05-25T06:53:22.547Z,6.62
2023-05-25T06:55:55.014Z,6.14
2023-05-25T06:58:24.845Z,6.30
2023-05-25T07:00:54.567Z,6.89
2023-05-25T07:03:24.321Z,6.42
2023-05-25T07:05:54.287Z,6.69
2023-05-25T07:08:24.134Z,6.38
2023-05-25T07:10:56.436Z,6.41
2023-05-25T07:13:26.230Z,6.46
2023-05-25T07:15:56.271Z,6.71
2023-05-25T07:18:26.544Z,6.54
2023-05-25T07:20:56.289Z,6.48
2023-05-25T07:23:26.145Z,6.14
2023-05-25T07:25:58.429Z,5.79
2023-05-25T07:28:28.291Z,5.86
2023-05-25T07:30:58.136Z,5.60
2023-05-25T07:33:27.952Z,6.13
2023-05-25T07:35:57.662Z,5.59
2023-05-25T07:38:27.381Z,5.57
2023-05-25T07:40:59.745Z,6.01
2023-05-25T07:43:32.219Z,6.25
2023-05-25T07:46:02.746Z,6.06
2023-05-25T07:48:32.452Z,6.32
2023-05-25T07:51:02.587Z,6.35
2023-05-25T07:53:32.643Z,5.90
2023-05-25T07:56:06.952Z,5.81
2023-05-25T07:58:37.699Z,5.51
2023-05-25T08:01:07.565Z,5.68
2023-05-25T08:03:48.820Z,5.92
2023-05-25T08:06:19.752Z,5.90
2023-05-25T08:08:50.179Z,6.33
2023-05-25T08:11:24.760Z,6.26
2023-05-25T08:13:54.705Z,6.33
2023-05-25T08:16:24.559Z,6.21
2023-05-25T08:18:54.487Z,5.82
2023-05-25T08:21:24.201Z,6.00
2023-05-25T08:23:54.391Z,6.00
2023-05-25T08:26:38.435Z,5.94
2023-05-25T08:29:16.611Z,5.76
2023-05-25T08:31:49.803Z,6.19
2023-05-25T08:34:19.803Z,6.09
2023-05-25T08:36:49.498Z,6.56
2023-05-25T08:39:19.274Z,6.04
2023-05-25T08:41:53.133Z,5.93
2023-05-25T08:44:24.431Z,5.94
2023-05-25T08:46:55.401Z,5.93
2023-05-25T08:49:25.887Z,5.97
2023-05-25T08:51:56.689Z,5.82
2023-05-25T08:54:29.559Z,5.33
2023-05-25T08:57:06.283Z,5.71
2023-05-25T08:59:41.077Z,5.56
2023-05-25T09:02:21.576Z,5.23
2023-05-25T09:04:51.393Z,5.54
2023-05-25T09:07:21.964Z,5.25
2023-05-25T09:09:52.001Z,4.99
2023-05-25T09:12:24.981Z,4.69
2023-05-25T09:14:56.476Z,4.73
2023-05-25T09:17:26.983Z,5.38
2023-05-25T09:19:57.226Z,5.29
2023-05-25T09:22:26.947Z,4.81
2023-05-25T09:24:56.774Z,5.17
2023-05-25T09:27:29.254Z,5.14
2023-05-25T09:30:01.379Z,5.18
2023-05-25T09:32:31.217Z,6.99
2023-05-25T09:35:09.928Z,5.26
2023-05-25T09:37:40.423Z,5.20
2023-05-25T09:40:11.443Z,5.31
2023-05-25T09:42:44.137Z,5.11
2023-05-25T09:45:13.904Z,4.83
2023-05-25T09:47:43.885Z,5.17
2023-05-25T09:50:14.473Z,5.11
2023-05-25T09:52:44.381Z,4.81
2023-05-25T09:55:14.445Z,4.74
2023-05-25T09:57:46.915Z,4.60
2023-05-25T10:00:18.606Z,4.61
2023-05-25T10:02:48.380Z,4.62
2023-05-25T10:05:18.504Z,4.98
2023-05-25T10:07:49.569Z,4.87
2023-05-25T10:10:19.459Z,4.86
2023-05-25T10:12:55.026Z,4.94
2023-05-25T10:15:25.727Z,4.98
2023-05-25T10:17:57.233Z,4.71
2023-05-25T10:20:29.729Z,4.71
2023-05-25T10:23:04.186Z,5.14
2023-05-25T10:25:36.127Z,5.35
2023-05-25T10:28:12.191Z,5.46
2023-05-25T10:30:42.362Z,5.40
2023-05-25T10:33:13.150Z,5.77
2023-05-25T10:35:56.706Z,5.61
2023-05-25T10:38:33.644Z,5.37
2023-05-25T10:41:03.663Z,5.77
2023-05-25T10:43:36.731Z,5.66
2023-05-25T10:46:08.171Z,5.97
2023-05-25T10:48:41.653Z,5.38
2023-05-25T10:51:12.105Z,5.62
2023-05-25T10:53:42.018Z,5.92
2023-05-25T10:56:13.041Z,5.61
2023-05-25T10:58:47.432Z,5.96
2023-05-25T11:01:18.668Z,6.29
2023-05-25T11:03:51.142Z,6.41
2023-05-25T11:06:22.029Z,6.69
2023-05-25T11:08:52.812Z,6.35
2023-05-25T11:11:22.594Z,6.12
2023-05-25T11:13:54.926Z,6.16
2023-05-25T11:16:26.000Z,6.49
2023-05-25T11:18:58.086Z,6.53
2023-05-25T11:21:43.644Z,6.22
2023-05-25T11:24:20.977Z,6.53
2023-05-25T11:26:58.496Z,6.23
2023-05-25T11:29:33.441Z,6.87
2023-05-25T11:32:03.410Z,6.79
2023-05-25T11:34:33.794Z,7.00
2023-05-25T11:37:04.561Z,7.14
2023-05-25T11:39:34.482Z,7.07
2023-05-25T11:42:08.021Z,6.95
2023-05-25T11:44:41.607Z,7.03
2023-05-25T11:47:13.575Z,6.99
2023-05-25T11:49:46.352Z,6.96
2023-05-25T11:52:17.022Z,7.05
2023-05-25T11:54:47.591Z,7.17
2023-05-25T11:57:18.159Z,7.39
2023-05-25T11:59:54.739Z,7.56
2023-05-25T12:02:25.831Z,7.33
2023-05-25T12:04:57.224Z,7.68
2023-05-25T12:07:27.287Z,7.38
2023-05-25T12:10:07.524Z,7.48
2023-05-25T12:12:40.920Z,6.76
2023-05-25T12:15:14.610Z,6.98
2023-05-25T12:17:45.858Z,7.01
2023-05-25T12:20:18.103Z,7.50
2023-05-25T12:22:49.237Z,6.73
2023-05-25T12:25:24.559Z,6.85
2023-05-25T12:28:09.262Z,6.98
2023-05-25T12:30:42.168Z,6.65
2023-05-25T12:33:16.187Z,6.40
2023-05-25T12:35:50.452Z,6.47
2023-05-25T12:38:21.759Z,6.13
2023-05-25T12:41:07.191Z,5.90
2023-05-25T12:43:43.209Z,6.04
2023-05-25T12:46:26.656Z,6.07
2023-05-25T12:48:56.445Z,6.02
2023-05-25T12:51:26.232Z,5.71
2023-05-25T12:53:57.907Z,5.54
2023-05-25T12:56:27.815Z,5.60
2023-05-25T12:58:57.582Z,5.51
2023-05-25T13:01:29.917Z,6.27
2023-05-25T13:03:59.716Z,5.50
2023-05-25T13:06:29.424Z,5.58
2023-05-25T13:08:59.127Z,5.65
2023-05-25T13:11:29.110Z,5.11
2023-05-25T13:13:58.810Z,4.81
2023-05-25T13:16:31.601Z,5.23
2023-05-25T13:19:01.387Z,4.99
2023-05-25T13:21:31.157Z,5.41
2023-05-25T13:24:00.921Z,4.92
2023-05-25T13:26:30.632Z,4.61
2023-05-25T13:29:00.296Z,5.08
2023-05-25T13:31:32.566Z,5.11
2023-05-25T13:34:03.917Z,4.91
2023-05-25T13:36:34.923Z,4.53
2023-05-25T13:39:05.534Z,4.58
2023-05-25T13:41:35.305Z,4.65
2023-05-25T13:44:05.088Z,4.89
2023-05-25T13:46:37.911Z,4.71
2023-05-25T13:49:07.870Z,4.75
2023-05-25T13:51:38.402Z,4.87
2023-05-25T13:54:08.124Z,4.52
2023-05-25T13:56:37.777Z,4.31
2023-05-25T13:59:07.544Z,4.59
2023-05-25T14:01:39.981Z,5.11
2023-05-25T14:04:10.372Z,4.70
2023-05-25T14:06:40.141Z,4.81
2023-05-25T14:09:11.390Z,4.68
2023-05-25T14:11:44.018Z,4.97
2023-05-25T14:14:27.159Z,5.15
2023-05-25T14:17:03.090Z,5.30
2023-05-25T14:19:33.227Z,5.16
2023-05-25T14:22:13.439Z,5.23
2023-05-25T14:24:44.246Z,4.82
2023-05-25T14:27:16.223Z,5.31
2023-05-25T14:29:45.981Z,5.18
2023-05-25T14:32:18.305Z,5.22
2023-05-25T14:34:48.247Z,5.13
2023-05-25T14:37:18.087Z,5.06
2023-05-25T14:39:47.825Z,4.95
2023-05-25T14:42:17.584Z,5.16
2023-05-25T14:44:47.333Z,5.13
2023-05-25T14:47:19.761Z,5.19
2023-05-25T14:49:49.510Z,4.71
2023-05-25T14:52:19.291Z,4.84
2023-05-25T14:54:49.218Z,4.71
2023-05-25T14:57:19.098Z,4.58
2023-05-25T14:59:48.863Z,4.73
2023-05-25T15:02:21.228Z,5.01
2023-05-25T15:04:51.022Z,4.63
2023-05-25T15:07:20.799Z,4.71
2023-05-25T15:09:50.615Z,4.97
2023-05-25T15:12:20.371Z,4.77
2023-05-25T15:14:50.176Z,4.64
2023-05-25T15:17:22.546Z,4.69
2023-05-25T15:19:52.313Z,4.76
2023-05-25T15:22:22.057Z,4.91
2023-05-25T15:24:51.859Z,4.50
2023-05-25T15:27:21.622Z,5.08
2023-05-25T15:29:51.408Z,4.67
2023-05-25T15:32:23.813Z,5.01
2023-05-25T15:34:53.579Z,4.66
2023-05-25T15:37:23.291Z,5.02
2023-05-25T15:39:53.009Z,5.08
2023-05-25T15:42:22.980Z,5.31
2023-05-25T15:44:52.822Z,5.17
2023-05-25T15:47:25.130Z,4.81
2023-05-25T15:49:54.850Z,4.55
2023-05-25T15:52:24.563Z,4.92
2023-05-25T15:54:54.253Z,4.79
2023-05-25T15:57:23.947Z,5.14
2023-05-25T15:59:54.459Z,5.17
2023-05-25T16:02:26.817Z,5.35
2023-05-25T16:04:56.555Z,5.00
2023-05-25T16:07:26.282Z,5.07
2023-05-25T16:09:56.009Z,5.33
2023-05-25T16:12:26.347Z,5.15
2023-05-25T16:14:56.118Z,5.67
2023-05-25T16:17:29.750Z,5.84
2023-05-25T16:19:59.495Z,5.96
2023-05-25T16:22:29.191Z,6.42
2023-05-25T16:24:59.070Z,6.49
2023-05-25T16:27:28.831Z,6.00
2023-05-25T16:29:58.530Z,5.85
2023-05-25T16:32:30.861Z,5.55
2023-05-25T16:35:00.661Z,5.38
2023-05-25T16:37:30.409Z,5.60
2023-05-25T16:40:00.198Z,5.88
2023-05-25T16:42:29.905Z,5.92
2023-05-25T16:44:59.644Z,6.64
2023-05-25T16:47:31.969Z,6.51
2023-05-25T16:50:01.717Z,6.29
2023-05-25T16:52:31.477Z,6.66
2023-05-25T16:55:01.458Z,5.91
2023-05-25T16:57:31.192Z,6.38
2023-05-25T17:00:00.924Z,6.42
2023-05-25T17:02:33.240Z,6.35
2023-05-25T17:05:06.602Z,6.12
2023-05-25T17:07:36.611Z,6.18
2023-05-25T17:12:36.845Z,7.47
2023-05-25T17:15:06.922Z,6.63
2023-05-25T17:17:39.293Z,6.55
2023-05-25T17:20:09.562Z,6.61
2023-05-25T17:22:39.629Z,6.52
2023-05-25T17:25:10.607Z,6.29
2023-05-25T17:27:40.373Z,6.59
2023-05-25T17:30:11.028Z,7.03
2023-05-25T17:32:43.826Z,7.09
2023-05-25T17:35:13.782Z,7.99
2023-05-25T17:37:44.859Z,7.35
2023-05-25T17:40:15.272Z,7.09
2023-05-25T17:42:45.775Z,6.88
2023-05-25T17:45:15.830Z,6.75
2023-05-25T17:47:48.152Z,6.95
2023-05-25T17:50:17.893Z,6.77
2023-05-25T17:52:47.623Z,7.23
2023-05-25T17:55:17.352Z,7.14
2023-05-25T17:57:47.061Z,6.91
2023-05-25T18:00:22.953Z,6.83
2023-05-25T18:02:55.498Z,8.28
2023-05-25T18:05:25.332Z,7.05
2023-05-25T18:07:55.160Z,6.90
2023-05-25T18:10:24.885Z,7.80
2023-05-25T18:12:54.861Z,7.29
2023-05-25T18:15:24.801Z,7.81
2023-05-25T18:17:57.140Z,7.35
2023-05-25T18:20:27.023Z,7.19
2023-05-25T18:22:56.817Z,7.95
2023-05-25T18:25:26.528Z,7.38
2023-05-25T18:27:56.310Z,7.55
2023-05-25T18:30:26.113Z,7.59
2023-05-25T18:32:58.495Z,8.42
2023-05-25T18:35:28.264Z,7.96
2023-05-25T18:37:58.077Z,7.52
2023-05-25T18:40:27.920Z,8.22
2023-05-25T18:42:57.801Z,8.61
2023-05-25T18:45:27.562Z,8.00
2023-05-25T18:48:07.688Z,8.05
2023-05-25T18:50:39.246Z,8.21
2023-05-25T18:53:10.937Z,8.06
2023-05-25T18:55:40.753Z,8.07
2023-05-25T18:58:10.428Z,7.88
2023-05-25T19:00:40.120Z,7.98
2023-05-25T19:03:12.653Z,8.67
2023-05-25T19:05:44.297Z,8.99
2023-05-25T19:08:14.183Z,8.21
2023-05-25T19:10:44.097Z,8.15
2023-05-25T19:13:13.916Z,8.70
2023-05-25T19:15:45.725Z,7.53
2023-05-25T19:18:18.398Z,7.74
2023-05-25T19:20:48.473Z,7.78
2023-05-25T19:23:19.607Z,7.61
2023-05-25T19:25:49.396Z,7.18
2023-05-25T19:28:19.251Z,7.95
2023-05-25T19:30:49.060Z,7.49
2023-05-25T19:33:21.499Z,7.41
2023-05-25T19:35:51.195Z,8.34
2023-05-25T19:38:22.140Z,8.59
2023-05-25T19:40:53.042Z,8.41
2023-05-25T19:43:22.828Z,8.78
2023-05-25T19:45:53.408Z,9.81
2023-05-25T19:48:27.303Z,9.34
2023-05-25T19:50:57.864Z,8.49
2023-05-25T19:53:27.643Z,8.04
2023-05-25T19:55:57.408Z,8.19
2023-05-25T19:58:27.182Z,8.83
2023-05-25T20:00:57.052Z,8.66
2023-05-25T20:03:29.581Z,8.52
2023-05-25T20:05:59.449Z,9.46
2023-05-25T20:08:29.291Z,8.27
2023-05-25T20:10:59.045Z,8.81
2023-05-25T20:13:28.800Z,8.80
2023-05-25T20:15:58.536Z,8.17
2023-05-25T20:18:30.839Z,8.40
2023-05-25T20:21:00.815Z,8.51
2023-05-25T20:23:30.523Z,8.45
2023-05-25T20:26:00.283Z,8.60
2023-05-25T20:28:30.018Z,9.04
2023-05-25T20:30:59.797Z,9.25
2023-05-25T20:33:32.182Z,9.01
2023-05-25T20:36:02.407Z,9.22
2023-05-25T20:38:32.163Z,10.02
2023-05-25T20:41:01.958Z,10.01
2023-05-25T20:43:31.684Z,8.87
2023-05-25T20:46:01.649Z,8.40
2023-05-25T20:48:34.016Z,8.93
2023-05-25T20:51:03.756Z,10.42
2023-05-25T20:53:33.496Z,10.52
2023-05-25T20:56:04.885Z,9.94
2023-05-25T20:58:34.582Z,9.13
2023-05-25T21:01:04.406Z,9.43
2023-05-25T21:03:37.010Z,9.37
2023-05-25T21:06:06.977Z,9.39
2023-05-25T21:08:36.879Z,8.73
2023-05-25T21:11:06.833Z,9.69
2023-05-25T21:13:36.624Z,8.71
2023-05-25T21:16:06.375Z,8.98
2023-05-25T21:18:38.767Z,9.43
2023-05-25T21:21:10.333Z,9.33
2023-05-25T21:23:40.108Z,9.67
2023-05-25T21:26:09.847Z,9.99
2023-05-25T21:28:39.555Z,9.50
2023-05-25T21:31:09.326Z,9.37
2023-05-25T21:33:41.649Z,9.07
2023-05-25T21:36:11.523Z,9.34
2023-05-25T21:38:41.245Z,9.86
2023-05-25T21:41:11.532Z,9.98
2023-05-25T21:43:41.301Z,9.69
2023-05-25T21:46:11.076Z,8.89
2023-05-25T21:48:43.492Z,9.94
2023-05-25T21:51:13.199Z,10.26
2023-05-25T21:53:42.964Z,9.93
2023-05-25T21:56:12.688Z,10.00
2023-05-25T21:58:42.414Z,10.18
2023-05-25T22:01:12.218Z,10.54
2023-05-25T22:03:44.623Z,11.12
2023-05-25T22:06:14.354Z,9.85
2023-05-25T22:08:44.204Z,9.22
2023-05-25T22:11:13.934Z,10.09
2023-05-25T22:13:43.629Z,9.90
2023-05-25T22:16:13.474Z,10.30
2023-05-25T22:18:45.818Z,9.42
2023-05-25T22:21:17.592Z,9.87
2023-05-25T22:23:47.246Z,10.54
2023-05-25T22:26:16.963Z,11.86
2023-05-25T22:28:46.757Z,11.16
2023-05-25T22:31:16.615Z,11.47
2023-05-25T22:33:49.006Z,10.92
2023-05-25T22:36:18.941Z,10.67
2023-05-25T22:38:48.924Z,11.05
2023-05-25T22:41:18.705Z,10.95
2023-05-25T22:43:48.361Z,10.27
2023-05-25T22:46:18.156Z,10.59
2023-05-25T22:48:50.425Z,11.46
2023-05-25T22:51:20.140Z,11.27
2023-05-25T22:53:49.868Z,10.72
2023-05-25T22:56:19.597Z,10.81
2023-05-25T22:58:49.290Z,9.74
2023-05-25T23:01:18.975Z,9.17
2023-05-25T23:03:51.352Z,10.52
2023-05-25T23:06:21.190Z,10.60
2023-05-25T23:08:51.047Z,10.90
2023-05-25T23:11:20.918Z,11.13
2023-05-25T23:13:50.771Z,12.14
2023-05-25T23:16:20.461Z,11.43
2023-05-25T23:18:52.755Z,11.34
2023-05-25T23:21:22.458Z,11.80
2023-05-25T23:23:52.130Z,11.04
2023-05-25T23:26:22.478Z,11.06
2023-05-25T23:28:52.211Z,10.22
2023-05-25T23:31:21.942Z,10.79
2023-05-25T23:33:54.264Z,11.80
2023-05-25T23:36:26.211Z,11.88
2023-05-25T23:38:55.978Z,12.79
2023-05-25T23:41:25.766Z,12.82
2023-05-25T23:43:56.250Z,11.23
2023-05-25T23:46:27.871Z,10.92
2023-05-25T23:49:00.238Z,12.14
2023-05-25T23:51:30.386Z,12.20
2023-05-25T23:54:00.062Z,11.54
2023-05-25T23:56:32.005Z,10.20
2023-05-25T23:59:01.710Z,10.96
